Terminal Aerodrome Forecast
Issued by NWS

Home | Current Version | Previous Version | Text Only | Print | Product List | Glossary On
Versions: 1 2 3 4 5 6 7 8 9 10 11 12 13
000
FTUS45 KREV 050522
TAFMMH
TAF
KMMH 050522Z 0506/0606 VRB04KT P6SM SCT180
     FM051700 13008KT P6SM SCT180
     FM052200 26009G18KT P6SM SKC=

USA.gov is the U.S. government's official web portal to all federal, state and local government web resources and services.